createdAt,value
2023-03-13T00:01:15.490Z,5.28
2023-03-13T00:03:42.717Z,5.31
2023-03-13T00:06:10.264Z,5.42
2023-03-13T00:08:37.240Z,5.45
2023-03-13T00:11:09.775Z,5.51
2023-03-13T00:13:36.584Z,5.63
2023-03-13T00:16:10.412Z,5.73
2023-03-13T00:18:37.886Z,5.93
2023-03-13T00:21:09.607Z,6.03
2023-03-13T00:23:38.693Z,6.11
2023-03-13T00:26:09.530Z,6.24
2023-03-13T00:28:39.176Z,6.34
2023-03-13T00:31:18.865Z,6.44
2023-03-13T00:33:48.540Z,6.45
2023-03-13T00:36:35.864Z,6.65
2023-03-13T00:39:05.853Z,6.71
2023-03-13T00:41:34.297Z,6.81
2023-03-13T00:44:01.231Z,6.70
2023-03-13T00:46:30.147Z,6.61
2023-03-13T00:48:57.582Z,6.64
2023-03-13T00:51:27.148Z,6.72
2023-03-13T00:53:55.531Z,6.73
2023-03-13T00:56:23.250Z,6.80
2023-03-13T00:58:50.817Z,6.70
2023-03-13T01:01:24.555Z,6.88
2023-03-13T01:03:57.726Z,6.82
2023-03-13T01:06:28.833Z,6.65
2023-03-13T01:08:56.552Z,6.95
2023-03-13T01:11:29.581Z,7.04
2023-03-13T01:14:01.914Z,7.07
2023-03-13T01:16:32.881Z,7.02
2023-03-13T01:19:03.312Z,7.08
2023-03-13T01:21:30.908Z,7.09
2023-03-13T01:23:57.773Z,7.20
2023-03-13T01:26:25.800Z,7.19
2023-03-13T01:28:52.564Z,7.14
2023-03-13T01:31:28.216Z,7.11
2023-03-13T01:33:57.853Z,7.17
2023-03-13T01:36:25.944Z,7.22
2023-03-13T01:38:56.095Z,7.21
2023-03-13T01:41:24.644Z,7.14
2023-03-13T01:43:52.057Z,7.14
2023-03-13T01:46:28.215Z,7.03
2023-03-13T01:49:06.730Z,7.11
2023-03-13T01:51:45.604Z,7.01
2023-03-13T01:54:20.685Z,7.00
2023-03-13T01:57:02.517Z,6.97
2023-03-13T01:59:44.743Z,6.96
2023-03-13T02:02:12.253Z,6.96
2023-03-13T02:04:51.089Z,6.95
2023-03-13T02:07:24.978Z,6.90
2023-03-13T02:09:53.935Z,7.01
2023-03-13T02:12:31.880Z,6.95
2023-03-13T02:15:09.789Z,6.99
2023-03-13T02:17:37.350Z,7.04
2023-03-13T02:20:05.413Z,7.01
2023-03-13T02:22:44.935Z,7.06
2023-03-13T02:25:23.630Z,7.19
2023-03-13T02:28:04.833Z,7.20
2023-03-13T02:30:31.921Z,7.13
2023-03-13T02:33:00.884Z,7.21
2023-03-13T02:35:28.093Z,7.18
2023-03-13T02:38:00.259Z,7.33
2023-03-13T02:40:31.684Z,7.34
2023-03-13T02:43:03.479Z,7.35
2023-03-13T02:45:30.282Z,7.31
2023-03-13T02:48:00.950Z,7.37
2023-03-13T02:50:28.076Z,7.39
2023-03-13T02:53:07.675Z,7.38
2023-03-13T02:55:41.380Z,7.41
2023-03-13T02:58:08.637Z,7.37
2023-03-13T03:00:36.277Z,7.36
2023-03-13T03:03:03.176Z,7.31
2023-03-13T03:05:29.956Z,7.35
2023-03-13T03:07:56.686Z,7.37
2023-03-13T03:10:23.421Z,7.42
2023-03-13T03:12:50.171Z,7.40
2023-03-13T03:15:17.084Z,7.44
2023-03-13T03:17:43.840Z,7.49
2023-03-13T03:20:14.215Z,7.48
2023-03-13T03:22:41.032Z,7.43
2023-03-13T03:25:09.537Z,7.47
2023-03-13T03:27:37.308Z,7.32
2023-03-13T03:30:07.984Z,7.44
2023-03-13T03:32:34.837Z,7.25
2023-03-13T03:35:01.565Z,7.48
2023-03-13T03:37:28.392Z,7.42
2023-03-13T03:39:55.137Z,7.45
2023-03-13T03:42:21.911Z,7.46
2023-03-13T03:44:48.674Z,7.39
2023-03-13T03:47:15.554Z,7.33
2023-03-13T03:49:42.327Z,7.36
2023-03-13T03:52:09.107Z,7.55
2023-03-13T03:54:35.827Z,7.51
2023-03-13T03:57:02.585Z,7.43
2023-03-13T03:59:29.400Z,7.49
2023-03-13T04:01:56.452Z,7.42
2023-03-13T04:04:23.532Z,7.43
2023-03-13T04:06:50.249Z,7.42
2023-03-13T04:09:17.526Z,7.29
2023-03-13T04:11:44.263Z,7.36
2023-03-13T04:14:11.030Z,7.44
2023-03-13T04:16:37.876Z,7.49
2023-03-13T04:19:04.741Z,7.47
2023-03-13T04:21:31.498Z,7.44
2023-03-13T04:23:58.234Z,7.45
2023-03-13T04:26:25.149Z,7.53
2023-03-13T04:28:51.891Z,7.55
2023-03-13T04:31:18.725Z,7.52
2023-03-13T04:33:45.546Z,7.58
2023-03-13T04:36:12.329Z,7.49
2023-03-13T04:38:39.184Z,7.59
2023-03-13T04:41:05.920Z,7.56
2023-03-13T04:43:32.661Z,7.43
2023-03-13T04:45:59.490Z,7.70
2023-03-13T04:48:26.240Z,7.73
2023-03-13T04:50:53.008Z,7.76
2023-03-13T04:53:19.793Z,7.72
2023-03-13T04:55:48.941Z,7.74
2023-03-13T04:58:15.702Z,7.80
2023-03-13T05:00:42.987Z,7.75
2023-03-13T05:03:09.776Z,7.74
2023-03-13T05:05:36.840Z,7.81
2023-03-13T05:08:03.692Z,7.83
2023-03-13T05:10:30.601Z,7.79
2023-03-13T05:12:57.544Z,7.75
2023-03-13T05:15:24.342Z,7.75
2023-03-13T05:17:53.549Z,7.74
2023-03-13T05:20:21.265Z,7.83
2023-03-13T05:22:47.999Z,7.70
2023-03-13T05:25:14.991Z,7.64
2023-03-13T05:27:41.820Z,7.63
2023-03-13T05:30:09.685Z,7.59
2023-03-13T05:32:36.423Z,7.73
2023-03-13T05:35:03.236Z,7.71
2023-03-13T05:37:30.054Z,7.70
2023-03-13T05:39:56.843Z,7.73
2023-03-13T05:42:23.675Z,7.74
2023-03-13T05:44:50.399Z,7.74
2023-03-13T05:47:18.480Z,7.84
2023-03-13T05:49:45.268Z,7.88
2023-03-13T05:52:12.021Z,7.88
2023-03-13T05:54:38.788Z,7.87
2023-03-13T05:57:05.618Z,7.88
2023-03-13T05:59:32.407Z,7.81
2023-03-13T06:01:59.207Z,7.86
2023-03-13T06:04:26.118Z,7.85
2023-03-13T06:06:52.884Z,7.90
2023-03-13T06:09:20.119Z,7.98
2023-03-13T06:11:46.842Z,7.98
2023-03-13T06:14:13.557Z,8.02
2023-03-13T06:16:40.372Z,8.18
2023-03-13T06:19:07.096Z,8.36
2023-03-13T06:21:33.917Z,8.55
2023-03-13T06:24:00.633Z,8.78
2023-03-13T06:26:27.416Z,8.90
2023-03-13T06:28:54.260Z,9.11
2023-03-13T06:31:21.153Z,9.23
2023-03-13T06:33:49.629Z,9.38
2023-03-13T06:36:17.157Z,9.49
2023-03-13T06:38:43.965Z,9.54
2023-03-13T06:41:10.777Z,9.52
2023-03-13T06:43:40.708Z,9.58
2023-03-13T06:46:09.272Z,9.69
2023-03-13T06:48:36.068Z,9.62
2023-03-13T06:51:03.068Z,9.81
2023-03-13T06:53:29.832Z,9.74
2023-03-13T06:55:56.593Z,9.90
2023-03-13T06:58:32.157Z,9.86
2023-03-13T07:01:20.226Z,9.95
2023-03-13T07:03:49.106Z,9.83
2023-03-13T07:06:16.874Z,9.87
2023-03-13T07:08:44.278Z,9.91
2023-03-13T07:11:13.888Z,9.93
2023-03-13T07:13:41.229Z,9.97
2023-03-13T07:16:11.700Z,9.96
2023-03-13T07:18:41.864Z,9.97
2023-03-13T07:21:10.967Z,10.12
2023-03-13T07:23:37.961Z,10.12
2023-03-13T07:26:13.134Z,10.21
2023-03-13T07:28:40.308Z,10.24
2023-03-13T07:31:22.049Z,10.34
2023-03-13T07:33:48.918Z,10.45
2023-03-13T07:36:16.558Z,10.53
2023-03-13T07:38:46.295Z,10.68
2023-03-13T07:41:13.749Z,10.82
2023-03-13T07:43:40.754Z,10.93
2023-03-13T07:46:10.933Z,11.12
2023-03-13T07:48:40.937Z,11.13
2023-03-13T07:51:13.431Z,11.31
2023-03-13T07:53:40.289Z,11.33
2023-03-13T07:56:11.801Z,11.42
2023-03-13T07:58:40.657Z,11.44
2023-03-13T08:01:24.413Z,11.57
2023-03-13T08:03:55.594Z,11.57
2023-03-13T08:06:25.738Z,11.72
2023-03-13T08:08:56.594Z,11.61
2023-03-13T08:11:25.655Z,11.64
2023-03-13T08:13:54.254Z,11.68
2023-03-13T08:16:30.002Z,11.78
2023-03-13T08:18:58.980Z,11.86
2023-03-13T08:21:28.732Z,11.97
2023-03-13T08:24:01.448Z,12.10
2023-03-13T08:26:30.812Z,12.32
2023-03-13T08:29:04.979Z,12.30
2023-03-13T08:31:38.752Z,12.41
2023-03-13T08:34:05.538Z,12.40
2023-03-13T08:36:37.320Z,12.57
2023-03-13T08:39:12.202Z,12.76
2023-03-13T08:41:40.828Z,12.87
2023-03-13T08:44:11.380Z,13.04
2023-03-13T08:46:38.914Z,13.16
2023-03-13T08:49:07.434Z,13.16
2023-03-13T08:51:34.870Z,13.33
2023-03-13T08:54:03.590Z,13.54
2023-03-13T08:56:31.506Z,13.63
2023-03-13T08:59:01.362Z,13.50
2023-03-13T09:01:32.100Z,13.64
2023-03-13T09:04:03.475Z,13.76
2023-03-13T09:06:30.942Z,13.77
2023-03-13T09:08:58.605Z,13.86
2023-03-13T09:11:26.137Z,13.93
2023-03-13T09:13:55.439Z,13.83
2023-03-13T09:16:24.700Z,13.91
2023-03-13T09:18:53.181Z,13.94
2023-03-13T09:21:31.788Z,13.88
2023-03-13T09:23:59.075Z,13.92
2023-03-13T09:26:28.037Z,14.00
2023-03-13T09:28:55.996Z,14.10
2023-03-13T09:31:28.173Z,14.19
2023-03-13T09:33:55.287Z,14.28
2023-03-13T09:36:24.005Z,14.32
2023-03-13T09:38:57.593Z,14.42
2023-03-13T09:41:28.009Z,14.56
2023-03-13T09:44:35.804Z,14.59
2023-03-13T09:47:18.483Z,14.56
2023-03-13T09:49:59.980Z,14.57
2023-03-13T09:52:40.927Z,14.85
2023-03-13T09:55:13.396Z,15.05
2023-03-13T09:58:04.832Z,15.22
2023-03-13T10:00:37.864Z,15.34
2023-03-13T10:03:07.379Z,15.35
2023-03-13T10:05:34.355Z,15.40
2023-03-13T10:08:37.813Z,15.50
2023-03-13T10:11:24.556Z,15.64
2023-03-13T10:13:59.355Z,15.76
2023-03-13T10:16:48.820Z,15.96
2023-03-13T10:19:19.524Z,15.91
2023-03-13T10:21:51.693Z,16.05
2023-03-13T10:24:40.490Z,16.11
2023-03-13T10:27:09.793Z,16.42
2023-03-13T10:29:36.574Z,16.43
2023-03-13T10:32:08.896Z,16.52
2023-03-13T10:35:01.522Z,16.66
2023-03-13T10:37:41.556Z,16.62
2023-03-13T10:40:27.488Z,16.21
2023-03-13T10:43:05.388Z,16.31
2023-03-13T10:45:36.892Z,16.52
2023-03-13T10:48:15.991Z,16.72
2023-03-13T10:50:49.221Z,16.66
2023-03-13T10:53:29.436Z,16.80
2023-03-13T10:56:04.101Z,16.96
2023-03-13T10:58:46.271Z,17.06
2023-03-13T11:01:23.285Z,17.16
2023-03-13T11:03:53.876Z,17.20
2023-03-13T11:06:35.501Z,17.05
2023-03-13T11:09:12.625Z,17.07
2023-03-13T11:11:51.689Z,17.24
2023-03-13T11:14:24.775Z,17.42
2023-03-13T11:16:52.586Z,17.43
2023-03-13T11:20:02.043Z,17.47
2023-03-13T11:22:40.013Z,17.47
2023-03-13T11:25:25.750Z,17.77
2023-03-13T11:28:36.626Z,17.81
2023-03-13T11:31:18.787Z,17.81
2023-03-13T11:34:04.577Z,17.89
2023-03-13T11:37:02.727Z,18.00
2023-03-13T11:39:49.433Z,18.18
2023-03-13T11:42:43.007Z,18.19
2023-03-13T11:45:30.798Z,17.99
2023-03-13T11:48:06.174Z,17.61
2023-03-13T11:51:13.592Z,17.52
2023-03-13T11:54:22.048Z,17.61
2023-03-13T11:57:19.091Z,17.84
2023-03-13T12:00:06.313Z,17.96
2023-03-13T12:02:45.805Z,17.84
2023-03-13T12:05:19.096Z,18.01
2023-03-13T12:07:58.531Z,18.13
2023-03-13T12:10:33.806Z,18.12
2023-03-13T12:13:21.459Z,18.33
2023-03-13T12:15:52.824Z,18.19
2023-03-13T12:18:43.030Z,18.37
2023-03-13T12:21:38.526Z,18.62
2023-03-13T12:24:29.976Z,18.72
2023-03-13T12:27:13.971Z,18.86
2023-03-13T12:29:59.728Z,19.07
2023-03-13T12:33:00.171Z,19.06
2023-03-13T12:35:34.682Z,19.11
2023-03-13T12:38:38.111Z,19.29
2023-03-13T12:41:42.083Z,19.30
2023-03-13T12:44:19.586Z,19.45
2023-03-13T12:46:53.581Z,19.60
2023-03-13T12:49:26.081Z,19.81
2023-03-13T12:52:19.539Z,19.87
2023-03-13T12:55:08.769Z,19.80
2023-03-13T12:58:15.093Z,19.91
2023-03-13T13:00:46.052Z,19.89
2023-03-13T13:03:36.362Z,19.98
2023-03-13T13:06:06.513Z,20.09
2023-03-13T13:08:43.206Z,19.83
2023-03-13T13:11:38.900Z,19.92
2023-03-13T13:14:17.540Z,19.86
2023-03-13T13:16:49.009Z,19.81
2023-03-13T13:19:24.464Z,19.64
2023-03-13T13:22:38.055Z,19.58
2023-03-13T13:25:10.916Z,19.42
2023-03-13T13:27:37.534Z,19.33
2023-03-13T13:30:19.606Z,19.19
2023-03-13T13:32:58.947Z,19.31
2023-03-13T13:35:32.404Z,19.18
2023-03-13T13:38:17.525Z,19.42
2023-03-13T13:41:11.591Z,19.28
2023-03-13T13:43:40.279Z,19.22
2023-03-13T13:46:33.262Z,19.24
2023-03-13T13:49:06.735Z,19.18
2023-03-13T13:51:38.108Z,19.31
2023-03-13T13:54:56.151Z,19.39
2023-03-13T13:57:31.335Z,19.39
2023-03-13T14:00:24.324Z,19.17
2023-03-13T14:02:54.064Z,19.11
2023-03-13T14:05:29.095Z,19.16
2023-03-13T14:08:03.857Z,19.25
2023-03-13T14:11:04.536Z,19.13
2023-03-13T14:13:31.520Z,19.20
2023-03-13T14:16:14.548Z,19.35
2023-03-13T14:18:43.401Z,19.39
2023-03-13T14:21:14.265Z,19.32
2023-03-13T14:23:46.534Z,19.35
2023-03-13T14:26:19.331Z,19.20
2023-03-13T14:28:53.664Z,18.95
2023-03-13T14:31:31.884Z,18.87
2023-03-13T14:34:03.574Z,18.71
2023-03-13T14:36:30.958Z,18.87
2023-03-13T14:39:00.005Z,18.85
2023-03-13T14:41:46.189Z,18.95
2023-03-13T14:44:26.413Z,18.90
2023-03-13T14:46:59.723Z,18.82
2023-03-13T14:49:31.724Z,18.77
2023-03-13T14:52:03.050Z,18.78
2023-03-13T14:54:51.232Z,18.81
2023-03-13T14:57:27.618Z,19.00
2023-03-13T15:00:27.479Z,19.14
2023-03-13T15:03:21.625Z,19.19
2023-03-13T15:06:11.575Z,19.37
2023-03-13T15:08:45.209Z,19.48
2023-03-13T15:11:30.326Z,19.82
2023-03-13T15:13:58.048Z,20.08
2023-03-13T15:16:26.145Z,20.17
2023-03-13T15:18:54.289Z,20.28
2023-03-13T15:21:24.667Z,20.44
2023-03-13T15:23:54.387Z,20.59
2023-03-13T15:26:24.932Z,20.47
2023-03-13T15:28:52.126Z,20.46
2023-03-13T15:31:21.144Z,20.53
2023-03-13T15:33:50.889Z,20.44
2023-03-13T15:36:17.698Z,20.60
2023-03-13T15:38:44.557Z,20.64
2023-03-13T15:41:11.323Z,20.57
2023-03-13T15:43:38.138Z,20.57
2023-03-13T15:46:12.410Z,20.19
2023-03-13T15:48:39.389Z,20.22
2023-03-13T15:51:06.528Z,19.96
2023-03-13T15:53:36.878Z,19.65
2023-03-13T15:56:15.444Z,19.61
2023-03-13T15:58:43.481Z,19.53
2023-03-13T16:01:13.307Z,19.40
2023-03-13T16:03:41.480Z,19.40
2023-03-13T16:06:28.288Z,19.23
2023-03-13T16:08:54.983Z,19.01
2023-03-13T16:11:21.911Z,18.85
2023-03-13T16:13:48.712Z,18.66
2023-03-13T16:16:31.928Z,18.57
2023-03-13T16:18:59.451Z,18.48
2023-03-13T16:21:31.015Z,18.37
2023-03-13T16:23:58.147Z,18.27
2023-03-13T16:26:30.912Z,18.12
2023-03-13T16:28:58.483Z,18.07
2023-03-13T16:31:29.044Z,18.01
2023-03-13T16:33:57.752Z,18.05
2023-03-13T16:36:31.336Z,17.87
2023-03-13T16:39:00.202Z,17.84
2023-03-13T16:41:28.664Z,17.80
2023-03-13T16:43:56.375Z,17.68
2023-03-13T16:46:35.520Z,17.67
2023-03-13T16:49:02.362Z,17.58
2023-03-13T16:51:29.198Z,17.51
2023-03-13T16:54:00.417Z,17.43
2023-03-13T16:56:40.198Z,17.41
2023-03-13T16:59:16.882Z,17.27
2023-03-13T17:01:45.012Z,17.09
2023-03-13T17:04:12.667Z,17.14
2023-03-13T17:06:42.747Z,17.03
2023-03-13T17:09:14.577Z,17.01
2023-03-13T17:11:41.683Z,16.86
2023-03-13T17:14:08.574Z,16.89
2023-03-13T17:16:39.787Z,16.78
2023-03-13T17:19:06.842Z,16.81
2023-03-13T17:21:35.237Z,16.81
2023-03-13T17:24:02.379Z,16.72
2023-03-13T17:26:35.739Z,16.67
2023-03-13T17:29:04.476Z,16.58
2023-03-13T17:31:37.301Z,16.54
2023-03-13T17:34:05.630Z,16.48
2023-03-13T17:36:32.674Z,16.38
2023-03-13T17:39:02.591Z,16.35
2023-03-13T17:41:35.641Z,16.33
2023-03-13T17:44:03.985Z,15.99
2023-03-13T17:46:44.702Z,15.92
2023-03-13T17:49:14.029Z,15.83
2023-03-13T17:51:41.729Z,15.76
2023-03-13T17:54:10.093Z,15.57
2023-03-13T17:56:40.330Z,15.48
2023-03-13T17:59:16.326Z,15.35
2023-03-13T18:01:44.046Z,15.08
2023-03-13T18:04:11.469Z,14.93
2023-03-13T18:06:43.851Z,14.80
2023-03-13T18:09:20.879Z,14.69
2023-03-13T18:11:49.016Z,14.68
2023-03-13T18:14:15.830Z,14.62
2023-03-13T18:16:48.585Z,14.67
2023-03-13T18:19:22.429Z,14.66
2023-03-13T18:21:53.014Z,14.71
2023-03-13T18:24:20.465Z,14.55
2023-03-13T18:26:48.961Z,14.50
2023-03-13T18:29:26.380Z,14.49
2023-03-13T18:31:58.996Z,14.45
2023-03-13T18:34:26.426Z,14.35
2023-03-13T18:36:54.451Z,14.26
2023-03-13T18:39:21.541Z,14.12
2023-03-13T18:41:49.786Z,14.12
2023-03-13T18:44:18.952Z,14.04
2023-03-13T18:46:46.153Z,13.89
2023-03-13T18:49:21.386Z,13.84
2023-03-13T18:51:49.598Z,13.73
2023-03-13T18:54:16.454Z,13.64
2023-03-13T18:56:44.997Z,13.63
2023-03-13T18:59:14.280Z,13.56
2023-03-13T19:01:41.143Z,13.55
2023-03-13T19:04:07.871Z,13.46
2023-03-13T19:06:36.891Z,13.32
2023-03-13T19:09:42.212Z,13.28
2023-03-13T19:12:06.862Z,13.25
2023-03-13T19:14:33.939Z,13.14
2023-03-13T19:17:00.702Z,13.08
2023-03-13T19:19:27.561Z,13.10
2023-03-13T19:21:57.207Z,13.10
2023-03-13T19:24:26.866Z,13.05
2023-03-13T19:26:58.789Z,12.91
2023-03-13T19:29:28.576Z,12.87
2023-03-13T19:31:56.524Z,12.87
2023-03-13T19:34:23.361Z,12.86
2023-03-13T19:36:50.713Z,12.74
2023-03-13T19:39:25.697Z,12.76
2023-03-13T19:41:53.512Z,12.73
2023-03-13T19:44:21.789Z,12.67
2023-03-13T19:46:49.117Z,12.62
2023-03-13T19:49:18.936Z,12.58
2023-03-13T19:51:45.764Z,12.57
2023-03-13T19:54:13.322Z,12.46
2023-03-13T19:56:43.801Z,12.49
2023-03-13T19:59:19.695Z,12.44
2023-03-13T20:01:46.620Z,12.31
2023-03-13T20:04:13.931Z,12.25
2023-03-13T20:06:42.763Z,12.25
2023-03-13T20:09:14.930Z,12.16
2023-03-13T20:11:42.016Z,12.07
2023-03-13T20:14:09.279Z,12.13
2023-03-13T20:16:36.921Z,11.97
2023-03-13T20:19:03.948Z,11.98
2023-03-13T20:21:34.628Z,11.54
2023-03-13T20:24:02.159Z,12.03
2023-03-13T20:26:30.258Z,12.36
2023-03-13T20:28:57.817Z,12.51
2023-03-13T20:31:29.008Z,12.56
2023-03-13T20:33:57.117Z,12.53
2023-03-13T20:36:24.864Z,12.52
2023-03-13T20:38:52.338Z,12.55
2023-03-13T20:41:25.209Z,12.34
2023-03-13T20:43:52.484Z,12.39
2023-03-13T20:46:19.853Z,12.21
2023-03-13T20:48:46.691Z,11.93
2023-03-13T20:51:13.498Z,12.00
2023-03-13T20:53:42.040Z,12.18
2023-03-13T20:56:10.766Z,12.16
2023-03-13T20:58:38.432Z,12.19
2023-03-13T21:01:07.320Z,12.04
2023-03-13T21:03:36.057Z,11.85
2023-03-13T21:06:18.305Z,11.41
2023-03-13T21:08:47.034Z,11.26
2023-03-13T21:11:20.550Z,10.91
2023-03-13T21:13:48.481Z,10.71
2023-03-13T21:16:16.700Z,10.56
2023-03-13T21:18:43.803Z,10.34
2023-03-13T21:21:17.458Z,9.89
2023-03-13T21:23:45.671Z,10.11
2023-03-13T21:26:13.013Z,9.97
2023-03-13T21:28:40.511Z,9.79
2023-03-13T21:31:19.092Z,9.76
2023-03-13T21:33:47.163Z,9.82
2023-03-13T21:36:16.052Z,9.73
2023-03-13T21:38:43.847Z,9.66
2023-03-13T21:41:13.790Z,9.73
2023-03-13T21:43:41.778Z,9.71
2023-03-13T21:46:15.106Z,9.55
2023-03-13T21:51:11.972Z,9.41
2023-03-13T21:53:39.232Z,9.26
2023-03-13T21:56:06.803Z,9.11
2023-03-13T21:58:33.650Z,9.18
2023-03-13T22:01:00.511Z,9.14
2023-03-13T22:03:27.412Z,9.16
2023-03-13T22:05:54.426Z,9.28
2023-03-13T22:08:21.209Z,9.36
2023-03-13T22:10:52.513Z,9.53
2023-03-13T22:13:19.315Z,9.48
2023-03-13T22:15:46.712Z,9.41
2023-03-13T22:18:15.637Z,9.46
2023-03-13T22:20:43.352Z,9.52
2023-03-13T22:23:12.105Z,9.48
2023-03-13T22:25:41.082Z,9.48
2023-03-13T22:28:08.208Z,9.28
2023-03-13T22:30:35.809Z,9.22
2023-03-13T22:33:06.722Z,9.18
2023-03-13T22:35:35.139Z,9.26
2023-03-13T22:38:02.405Z,9.20
2023-03-13T22:40:29.201Z,9.03
2023-03-13T22:42:56.030Z,9.13
2023-03-13T22:45:23.286Z,9.07
2023-03-13T22:47:50.156Z,9.17
2023-03-13T22:50:19.757Z,9.22
2023-03-13T22:52:46.989Z,9.13
2023-03-13T22:55:13.715Z,8.89
2023-03-13T22:57:40.445Z,9.08
2023-03-13T23:00:09.072Z,9.11
2023-03-13T23:02:35.886Z,9.06
2023-03-13T23:05:02.629Z,9.09
2023-03-13T23:07:30.678Z,9.06
2023-03-13T23:09:58.401Z,9.08
2023-03-13T23:12:26.168Z,9.00
2023-03-13T23:14:53.188Z,8.83
2023-03-13T23:17:20.058Z,8.88
2023-03-13T23:19:46.927Z,8.84
2023-03-13T23:22:17.911Z,8.83
2023-03-13T23:24:44.976Z,8.83
2023-03-13T23:27:11.848Z,8.82
2023-03-13T23:29:39.194Z,8.83
2023-03-13T23:32:06.506Z,8.85
2023-03-13T23:34:36.115Z,8.85
2023-03-13T23:37:03.332Z,8.86
2023-03-13T23:39:30.904Z,8.90
2023-03-13T23:41:57.983Z,8.88
2023-03-13T23:44:24.784Z,8.72
2023-03-13T23:46:51.541Z,8.73
2023-03-13T23:49:18.345Z,8.72
2023-03-13T23:51:45.082Z,8.71
2023-03-13T23:54:11.808Z,8.73
2023-03-13T23:56:38.527Z,8.76
2023-03-13T23:59:05.301Z,8.82
